Time;durP1;ratioP1;P1;durP2;ratioP2;P2;SDS_P1;SDS_P2;PMS_P1;PMS_P2;Temp;Humidity;BMP_temperature;BMP_pressure;BME280_temperature;BME280_humidity;BME280_pressure;Samples;Min_cycle;Max_cycle;Signal;HPM_P1;HPM_P2
2022/10/27 00:01:11;;;;;;;0.63;0.32;;;;;;;;;;4196726;28;20052;-49
2022/10/27 00:03:14;;;;;;;0.40;0.20;;;;;;;;;;4196345;28;20048;-49
2022/10/27 00:05:15;;;;;;;0.25;0.25;;;;;;;;;;4196404;28;20118;-49
2022/10/27 00:07:16;;;;;;;0.60;0.28;;;;;;;;;;4188823;28;20061;-46
2022/10/27 00:09:18;;;;;;;0.40;0.30;;;;;;;;;;4180170;28;20044;-50
2022/10/27 00:11:19;;;;;;;0.40;0.40;;;;;;;;;;4179806;28;20053;-49
2022/10/27 00:13:20;;;;;;;0.30;0.30;;;;;;;;;;4195527;28;20561;-49
2022/10/27 00:15:21;;;;;;;0.30;0.20;;;;;;;;;;4191401;28;20064;-49
2022/10/27 00:17:23;;;;;;;0.60;0.20;;;;;;;;;;4187972;28;20114;-48
2022/10/27 00:19:25;;;;;;;0.20;0.20;;;;;;;;;;4185194;28;20049;-49
2022/10/27 00:21:26;;;;;;;1.30;0.43;;;;;;;;;;4194857;28;20061;-46
2022/10/27 00:23:27;;;;;;;0.32;0.30;;;;;;;;;;4196858;28;20048;-46
2022/10/27 00:25:29;;;;;;;0.47;0.30;;;;;;;;;;4197220;28;20057;-46
2022/10/27 00:27:30;;;;;;;0.50;0.30;;;;;;;;;;4184916;28;20056;-47
2022/10/27 00:29:31;;;;;;;0.32;0.20;;;;;;;;;;4179969;28;20111;-48
2022/10/27 00:31:33;;;;;;;0.20;0.20;;;;;;;;;;4183476;28;20132;-48
2022/10/27 00:33:34;;;;;;;0.40;0.30;;;;;;;;;;4196762;28;20557;-50
2022/10/27 00:35:35;;;;;;;0.22;0.20;;;;;;;;;;4195508;28;20065;-46
2022/10/27 00:37:37;;;;;;;0.52;0.28;;;;;;;;;;4196630;28;20056;-46
2022/10/27 00:39:38;;;;;;;0.30;0.30;;;;;;;;;;4182954;28;20053;-48
2022/10/27 00:41:41;;;;;;;0.35;0.20;;;;;;;;;;4173373;28;20072;-49
2022/10/27 00:43:42;;;;;;;0.30;0.20;;;;;;;;;;4187482;28;20049;-47
2022/10/27 00:45:44;;;;;;;0.22;0.20;;;;;;;;;;4192189;28;20052;-46
2022/10/27 00:47:45;;;;;;;0.30;0.20;;;;;;;;;;4194456;28;20056;-44
2022/10/27 00:49:55;;;;;;;0.38;0.20;;;;;;;;;;4178483;28;20446;-46
2022/10/27 00:51:58;;;;;;;0.20;0.20;;;;;;;;;;4178360;28;20053;-46
2022/10/27 00:54:00;;;;;;;0.57;0.20;;;;;;;;;;4178305;28;20057;-50
2022/10/27 00:56:01;;;;;;;0.45;0.25;;;;;;;;;;4191633;28;20056;-46
2022/10/27 00:58:06;;;;;;;0.40;0.20;;;;;;;;;;4182513;28;20048;-46
2022/10/27 01:00:08;;;;;;;0.30;0.30;;;;;;;;;;4187664;28;20053;-46
2022/10/27 01:02:10;;;;;;;0.45;0.20;;;;;;;;;;4179077;28;20053;-46
2022/10/27 01:04:12;;;;;;;0.10;0.10;;;;;;;;;;4177814;28;20060;-48
2022/10/27 01:06:13;;;;;;;0.20;0.20;;;;;;;;;;4179413;28;20048;-46
2022/10/27 01:08:16;;;;;;;0.47;0.20;;;;;;;;;;4193815;28;20114;-48
2022/10/27 01:10:17;;;;;;;0.38;0.30;;;;;;;;;;4183059;28;20386;-49
2022/10/27 01:12:19;;;;;;;0.40;0.20;;;;;;;;;;4193458;28;20051;-46
2022/10/27 01:14:20;;;;;;;0.30;0.22;;;;;;;;;;4190274;28;20150;-48
2022/10/27 01:16:39;;;;;;;0.25;0.25;;;;;;;;;;4178605;28;20048;-44
2022/10/27 01:18:52;;;;;;;0.53;0.20;;;;;;;;;;4178232;28;20048;-49
2022/10/27 01:21:39;;;;;;;0.65;0.20;;;;;;;;;;4183048;28;20446;-46
2022/10/27 01:24:12;;;;;;;0.30;0.20;;;;;;;;;;4177495;28;20106;-48
2022/10/27 01:26:34;;;;;;;0.20;0.20;;;;;;;;;;4185212;28;20052;-49
2022/10/27 01:29:09;;;;;;;0.30;0.25;;;;;;;;;;4181235;28;20048;-46
2022/10/27 01:31:12;;;;;;;0.30;0.30;;;;;;;;;;4186497;28;20052;-46
2022/10/27 01:33:20;;;;;;;0.20;0.20;;;;;;;;;;4193850;28;20049;-46
2022/10/27 01:35:25;;;;;;;0.38;0.20;;;;;;;;;;4178654;28;20061;-48
2022/10/27 01:37:39;;;;;;;0.10;0.10;;;;;;;;;;4182626;28;20052;-46
2022/10/27 01:39:56;;;;;;;0.20;0.20;;;;;;;;;;4161054;28;20049;-48
2022/10/27 01:42:02;;;;;;;0.30;0.20;;;;;;;;;;4192081;28;20048;-48
2022/10/27 01:44:09;;;;;;;0.30;0.28;;;;;;;;;;4178595;28;20057;-48
2022/10/27 01:46:10;;;;;;;0.38;0.25;;;;;;;;;;4186912;28;20090;-48
2022/10/27 01:48:12;;;;;;;0.20;0.20;;;;;;;;;;4180968;28;20087;-45
2022/10/27 01:50:26;;;;;;;0.22;0.22;;;;;;;;;;4192412;28;20083;-48
2022/10/27 01:52:38;;;;;;;0.30;0.20;;;;;;;;;;4184424;28;20064;-46
2022/10/27 01:54:40;;;;;;;0.25;0.25;;;;;;;;;;4195423;28;20057;-48
2022/10/27 01:56:44;;;;;;;0.40;0.25;;;;;;;;;;4187568;28;20165;-48
2022/10/27 01:59:00;;;;;;;0.10;0.10;;;;;;;;;;4182511;28;20064;-45
2022/10/27 02:01:19;;;;;;;0.30;0.30;;;;;;;;;;4193924;28;20440;-48
2022/10/27 02:03:26;;;;;;;0.22;0.20;;;;;;;;;;4179751;28;20130;-46
2022/10/27 02:05:43;;;;;;;0.20;0.20;;;;;;;;;;4177528;28;20060;-46
2022/10/27 02:08:16;;;;;;;0.70;0.30;;;;;;;;;;4188401;28;20060;-43
2022/10/27 02:10:24;;;;;;;0.20;0.20;;;;;;;;;;4181469;28;20048;-46
2022/10/27 02:12:29;;;;;;;0.95;0.32;;;;;;;;;;4180334;28;20057;-48
2022/10/27 02:14:30;;;;;;;0.22;0.20;;;;;;;;;;4180536;28;20492;-46
2022/10/27 02:16:33;;;;;;;0.10;0.10;;;;;;;;;;4177087;28;20456;-47
2022/10/27 02:18:38;;;;;;;0.30;0.20;;;;;;;;;;4196909;28;20056;-50
2022/10/27 02:20:43;;;;;;;0.20;0.20;;;;;;;;;;4198612;28;20162;-48
2022/10/27 02:22:45;;;;;;;0.43;0.32;;;;;;;;;;4183885;28;20091;-50
2022/10/27 02:24:47;;;;;;;0.20;0.20;;;;;;;;;;4182707;28;20106;-47
2022/10/27 02:26:55;;;;;;;0.20;0.10;;;;;;;;;;4192099;28;20083;-48
2022/10/27 02:29:01;;;;;;;0.20;0.20;;;;;;;;;;4173764;28;20099;-50
2022/10/27 02:31:03;;;;;;;0.52;0.20;;;;;;;;;;4179672;28;20060;-49
2022/10/27 02:33:04;;;;;;;0.17;0.17;;;;;;;;;;4181071;28;20102;-50
2022/10/27 02:35:07;;;;;;;0.50;0.30;;;;;;;;;;4181356;28;20122;-44
2022/10/27 02:37:09;;;;;;;0.32;0.32;;;;;;;;;;4181405;28;20107;-48
2022/10/27 02:39:10;;;;;;;0.22;0.20;;;;;;;;;;4181555;28;20068;-48
2022/10/27 02:41:12;;;;;;;0.20;0.17;;;;;;;;;;4194630;28;20601;-46
2022/10/27 02:43:14;;;;;;;0.32;0.20;;;;;;;;;;4186958;28;20098;-46
2022/10/27 02:45:15;;;;;;;0.25;0.25;;;;;;;;;;4187573;28;20079;-45
2022/10/27 02:47:16;;;;;;;0.20;0.20;;;;;;;;;;4197239;28;20106;-48
2022/10/27 02:49:19;;;;;;;0.10;0.10;;;;;;;;;;4196079;28;20160;-49
2022/10/27 02:51:20;;;;;;;0.20;0.20;;;;;;;;;;4181103;28;20068;-46
2022/10/27 02:53:21;;;;;;;0.20;0.20;;;;;;;;;;4188086;28;20110;-46
2022/10/27 02:55:22;;;;;;;0.17;0.17;;;;;;;;;;4197570;28;20397;-51
2022/10/27 02:57:23;;;;;;;0.15;0.15;;;;;;;;;;4181802;28;20053;-49
2022/10/27 02:59:25;;;;;;;0.32;0.32;;;;;;;;;;4181138;28;20484;-48
2022/10/27 03:01:26;;;;;;;0.70;0.20;;;;;;;;;;4179543;28;20102;-45
2022/10/27 03:03:27;;;;;;;0.25;0.20;;;;;;;;;;4191115;28;20060;-46
2022/10/27 03:05:28;;;;;;;0.28;0.20;;;;;;;;;;4183530;28;20053;-45
2022/10/27 03:07:30;;;;;;;2.42;0.30;;;;;;;;;;4178793;28;20106;-49
2022/10/27 03:09:31;;;;;;;0.85;0.30;;;;;;;;;;4186511;28;20049;-49
2022/10/27 03:11:33;;;;;;;0.20;0.20;;;;;;;;;;4188151;28;20056;-48
2022/10/27 03:13:35;;;;;;;0.30;0.30;;;;;;;;;;4193277;28;20511;-44
2022/10/27 03:15:36;;;;;;;0.25;0.20;;;;;;;;;;4193692;28;20068;-48
2022/10/27 03:17:45;;;;;;;0.30;0.20;;;;;;;;;;4180377;28;20053;-51
2022/10/27 03:19:46;;;;;;;0.20;0.20;;;;;;;;;;4180416;28;20053;-50
2022/10/27 03:21:48;;;;;;;0.10;0.10;;;;;;;;;;4192987;28;20078;-47
2022/10/27 03:23:49;;;;;;;0.10;0.10;;;;;;;;;;4183497;28;20102;-50
2022/10/27 03:25:51;;;;;;;0.20;0.20;;;;;;;;;;4192252;28;20099;-51
2022/10/27 03:27:52;;;;;;;0.20;0.20;;;;;;;;;;4179410;28;20492;-49
2022/10/27 03:29:53;;;;;;;0.28;0.20;;;;;;;;;;4179243;28;20523;-51
2022/10/27 03:31:54;;;;;;;0.38;0.30;;;;;;;;;;4179595;28;20053;-49
2022/10/27 03:33:55;;;;;;;0.20;0.20;;;;;;;;;;4180460;28;20057;-50
2022/10/27 03:35:58;;;;;;;0.30;0.20;;;;;;;;;;4184004;28;20055;-49
2022/10/27 03:38:00;;;;;;;0.20;0.10;;;;;;;;;;4185143;28;20064;-48
2022/10/27 03:40:01;;;;;;;0.20;0.20;;;;;;;;;;4193584;28;20102;-45
2022/10/27 03:42:02;;;;;;;0.63;0.20;;;;;;;;;;4193397;28;20053;-47
2022/10/27 03:44:03;;;;;;;0.20;0.20;;;;;;;;;;4180414;28;20488;-47
2022/10/27 03:46:04;;;;;;;0.25;0.25;;;;;;;;;;4180326;28;20156;-48
2022/10/27 03:48:09;;;;;;;0.30;0.30;;;;;;;;;;4195069;28;20064;-46
2022/10/27 03:50:10;;;;;;;0.40;0.20;;;;;;;;;;4162367;28;20131;-50
2022/10/27 03:52:11;;;;;;;0.17;0.17;;;;;;;;;;4184470;28;20098;-47
2022/10/27 03:54:13;;;;;;;0.30;0.20;;;;;;;;;;4180314;28;20087;-51
2022/10/27 03:56:14;;;;;;;0.20;0.20;;;;;;;;;;4178818;28;20114;-50
2022/10/27 03:58:16;;;;;;;0.20;0.20;;;;;;;;;;4193145;28;20388;-47
2022/10/27 04:00:18;;;;;;;0.20;0.20;;;;;;;;;;4185085;28;20125;-51
2022/10/27 04:02:19;;;;;;;0.90;0.30;;;;;;;;;;4186818;28;20049;-50
2022/10/27 04:04:22;;;;;;;0.47;0.30;;;;;;;;;;4190036;28;20126;-50
2022/10/27 04:06:23;;;;;;;0.45;0.20;;;;;;;;;;4195072;28;20489;-52
2022/10/27 04:08:25;;;;;;;0.22;0.20;;;;;;;;;;4183973;28;20109;-46
2022/10/27 04:10:26;;;;;;;0.10;0.10;;;;;;;;;;4188356;28;20562;-46
2022/10/27 04:12:28;;;;;;;0.15;0.10;;;;;;;;;;4178592;28;20048;-50
2022/10/27 04:14:29;;;;;;;0.10;0.10;;;;;;;;;;4193131;28;20428;-41
2022/10/27 04:16:30;;;;;;;0.10;0.10;;;;;;;;;;4193074;28;20056;-48
2022/10/27 04:18:32;;;;;;;0.20;0.20;;;;;;;;;;4180008;28;20496;-49
2022/10/27 04:20:33;;;;;;;0.28;0.20;;;;;;;;;;4180098;28;20053;-51
2022/10/27 04:22:34;;;;;;;0.77;0.20;;;;;;;;;;4179708;28;20052;-49
2022/10/27 04:24:39;;;;;;;0.28;0.17;;;;;;;;;;4181563;28;20106;-45
2022/10/27 04:26:41;;;;;;;0.40;0.30;;;;;;;;;;4194742;28;20052;-52
2022/10/27 04:28:42;;;;;;;0.20;0.10;;;;;;;;;;4187483;28;20095;-46
2022/10/27 04:30:43;;;;;;;0.22;0.22;;;;;;;;;;4161886;28;20053;-48
2022/10/27 04:32:44;;;;;;;0.38;0.20;;;;;;;;;;4178271;28;20110;-49
2022/10/27 04:34:46;;;;;;;0.20;0.20;;;;;;;;;;4178250;28;20087;-47
2022/10/27 04:36:47;;;;;;;0.30;0.20;;;;;;;;;;4185880;28;20573;-48
2022/10/27 04:38:49;;;;;;;0.40;0.30;;;;;;;;;;4195995;28;20102;-49
2022/10/27 04:40:50;;;;;;;0.20;0.17;;;;;;;;;;4195490;28;20522;-50
2022/10/27 04:42:51;;;;;;;0.20;0.20;;;;;;;;;;4191982;28;20048;-48
2022/10/27 04:44:52;;;;;;;0.30;0.30;;;;;;;;;;4179651;28;20155;-49
2022/10/27 04:46:54;;;;;;;0.20;0.20;;;;;;;;;;4178870;28;20511;-49
2022/10/27 04:48:55;;;;;;;0.10;0.10;;;;;;;;;;4179374;28;20057;-45
2022/10/27 04:50:56;;;;;;;0.13;0.13;;;;;;;;;;4182083;28;20052;-49
2022/10/27 04:53:01;;;;;;;0.13;0.10;;;;;;;;;;4189725;28;20099;-49
2022/10/27 04:55:02;;;;;;;0.25;0.20;;;;;;;;;;4179362;28;20078;-49
2022/10/27 04:57:04;;;;;;;0.20;0.20;;;;;;;;;;4177884;28;20053;-48
2022/10/27 04:59:05;;;;;;;0.15;0.10;;;;;;;;;;4192503;28;20063;-47
2022/10/27 05:01:10;;;;;;;0.30;0.30;;;;;;;;;;4179576;28;20110;-49
2022/10/27 05:03:12;;;;;;;0.30;0.20;;;;;;;;;;4186310;28;20384;-46
2022/10/27 05:05:13;;;;;;;1.08;0.35;;;;;;;;;;4181318;28;20064;-46
2022/10/27 05:07:14;;;;;;;0.20;0.20;;;;;;;;;;4190043;28;20101;-48
2022/10/27 05:09:15;;;;;;;0.30;0.22;;;;;;;;;;4177213;28;20091;-47
2022/10/27 05:11:17;;;;;;;0.47;0.25;;;;;;;;;;4175530;28;20136;-48
2022/10/27 05:13:18;;;;;;;0.35;0.25;;;;;;;;;;4188121;28;20222;-46
2022/10/27 05:15:19;;;;;;;0.10;0.10;;;;;;;;;;4179321;28;20057;-46
2022/10/27 05:17:20;;;;;;;0.47;0.20;;;;;;;;;;4189236;28;20064;-46
2022/10/27 05:19:22;;;;;;;0.20;0.20;;;;;;;;;;4183066;28;20095;-48
2022/10/27 05:21:23;;;;;;;0.32;0.20;;;;;;;;;;4183423;28;20056;-46
2022/10/27 05:23:25;;;;;;;0.20;0.20;;;;;;;;;;4192234;28;20060;-49
2022/10/27 05:25:26;;;;;;;1.00;0.30;;;;;;;;;;4176981;28;20392;-46
2022/10/27 05:27:27;;;;;;;0.30;0.20;;;;;;;;;;4179675;28;20748;-41
2022/10/27 05:29:30;;;;;;;0.47;0.30;;;;;;;;;;4187012;28;20122;-46
2022/10/27 05:31:31;;;;;;;0.25;0.20;;;;;;;;;;4175597;28;20183;-46
2022/10/27 05:33:32;;;;;;;0.40;0.22;;;;;;;;;;4176802;28;20056;-46
2022/10/27 05:35:34;;;;;;;0.20;0.20;;;;;;;;;;4180387;28;20467;-49
2022/10/27 05:37:35;;;;;;;0.20;0.20;;;;;;;;;;4183943;28;20128;-43
2022/10/27 05:39:37;;;;;;;0.57;0.20;;;;;;;;;;4183103;28;20044;-50
2022/10/27 05:41:38;;;;;;;0.10;0.10;;;;;;;;;;4182075;28;20444;-49
2022/10/27 05:43:40;;;;;;;0.30;0.20;;;;;;;;;;4186313;28;20053;-48
2022/10/27 05:45:42;;;;;;;0.35;0.20;;;;;;;;;;4185309;28;20109;-44
2022/10/27 05:47:43;;;;;;;0.50;0.20;;;;;;;;;;4186393;28;20082;-49
2022/10/27 05:49:44;;;;;;;0.22;0.20;;;;;;;;;;4181853;28;20111;-46
2022/10/27 05:51:48;;;;;;;0.35;0.30;;;;;;;;;;4188887;28;20055;-46
2022/10/27 05:53:50;;;;;;;0.22;0.20;;;;;;;;;;4186670;28;20226;-48
2022/10/27 05:55:52;;;;;;;0.60;0.20;;;;;;;;;;4187291;28;20052;-48
2022/10/27 05:57:55;;;;;;;0.28;0.20;;;;;;;;;;4183805;28;20078;-47
2022/10/27 05:59:56;;;;;;;0.20;0.20;;;;;;;;;;4186696;28;20500;-46
2022/10/27 06:01:58;;;;;;;0.28;0.28;;;;;;;;;;4183636;28;20056;-40
2022/10/27 06:03:59;;;;;;;0.20;0.20;;;;;;;;;;4178616;28;20506;-46
2022/10/27 06:06:04;;;;;;;0.40;0.32;;;;;;;;;;4174474;28;20617;-45
2022/10/27 06:08:05;;;;;;;0.30;0.10;;;;;;;;;;4172959;28;20099;-42
2022/10/27 06:10:07;;;;;;;0.30;0.20;;;;;;;;;;4187411;28;20056;-47
2022/10/27 06:12:08;;;;;;;0.30;0.25;;;;;;;;;;4183911;28;20053;-44
2022/10/27 06:14:10;;;;;;;0.10;0.10;;;;;;;;;;4171844;28;20449;-45
2022/10/27 06:16:11;;;;;;;0.35;0.20;;;;;;;;;;4179100;28;20055;-44
2022/10/27 06:18:13;;;;;;;0.85;0.30;;;;;;;;;;4182619;28;20488;-45
2022/10/27 06:20:14;;;;;;;0.40;0.25;;;;;;;;;;4182212;28;20409;-45
2022/10/27 06:22:16;;;;;;;0.22;0.20;;;;;;;;;;4171140;28;20358;-48
2022/10/27 06:24:17;;;;;;;0.20;0.20;;;;;;;;;;4180957;28;20106;-50
2022/10/27 06:26:18;;;;;;;2.45;0.50;;;;;;;;;;4191552;28;20109;-44
2022/10/27 06:28:21;;;;;;;1.90;0.30;;;;;;;;;;4189921;28;20056;-41
2022/10/27 06:30:22;;;;;;;0.43;0.38;;;;;;;;;;4170188;28;20056;-48
2022/10/27 06:32:23;;;;;;;0.55;0.38;;;;;;;;;;4178909;28;20044;-42
2022/10/27 06:34:25;;;;;;;0.50;0.20;;;;;;;;;;4176483;28;20052;-46
2022/10/27 06:36:26;;;;;;;1.25;0.35;;;;;;;;;;4178831;28;20637;-48
2022/10/27 06:38:46;;;;;;;0.68;0.30;;;;;;;;;;4187697;28;20478;-48
2022/10/27 06:40:48;;;;;;;0.45;0.28;;;;;;;;;;4176235;28;20494;-49
2022/10/27 06:42:49;;;;;;;0.70;0.40;;;;;;;;;;4183537;28;20623;-42
2022/10/27 06:44:50;;;;;;;0.28;0.25;;;;;;;;;;4163707;28;20053;-46
2022/10/27 06:46:52;;;;;;;0.85;0.25;;;;;;;;;;4181199;28;20696;-44
2022/10/27 06:48:53;;;;;;;1.45;0.40;;;;;;;;;;4185076;28;20455;-47
2022/10/27 06:50:55;;;;;;;0.68;0.30;;;;;;;;;;4189800;28;20338;-44
2022/10/27 06:52:56;;;;;;;2.20;0.40;;;;;;;;;;4176580;28;20122;-46
2022/10/27 06:54:57;;;;;;;0.32;0.32;;;;;;;;;;4175529;28;20083;-44
2022/10/27 06:56:58;;;;;;;0.60;0.32;;;;;;;;;;4168175;28;20113;-48
2022/10/27 06:59:00;;;;;;;0.98;0.35;;;;;;;;;;4173812;28;20064;-47
2022/10/27 07:01:01;;;;;;;1.80;0.30;;;;;;;;;;4171120;28;20106;-47
2022/10/27 07:03:09;;;;;;;0.20;0.20;;;;;;;;;;4168826;28;20121;-41
2022/10/27 07:05:10;;;;;;;1.40;0.30;;;;;;;;;;4170354;28;20060;-40
2022/10/27 07:07:11;;;;;;;0.57;0.38;;;;;;;;;;4181034;28;20531;-49
2022/10/27 07:09:13;;;;;;;0.68;0.30;;;;;;;;;;4178286;28;20057;-44
2022/10/27 07:11:14;;;;;;;0.30;0.30;;;;;;;;;;4183416;28;20060;-43
2022/10/27 07:13:17;;;;;;;1.80;0.40;;;;;;;;;;4183192;28;20464;-41
2022/10/27 07:15:18;;;;;;;0.38;0.38;;;;;;;;;;4175258;28;20482;-43
2022/10/27 07:17:20;;;;;;;0.63;0.35;;;;;;;;;;4178906;28;20055;-41
2022/10/27 07:19:21;;;;;;;0.30;0.25;;;;;;;;;;4183538;28;20133;-43
2022/10/27 07:21:23;;;;;;;2.05;0.20;;;;;;;;;;4168509;28;20053;-46
2022/10/27 07:23:25;;;;;;;0.20;0.20;;;;;;;;;;4170068;28;20056;-41
2022/10/27 07:25:27;;;;;;;0.50;0.30;;;;;;;;;;4176598;28;20105;-43
2022/10/27 07:27:28;;;;;;;1.63;0.40;;;;;;;;;;4181837;28;20530;-45
2022/10/27 07:29:30;;;;;;;0.50;0.30;;;;;;;;;;4174714;28;20746;-44
2022/10/27 07:31:31;;;;;;;0.30;0.30;;;;;;;;;;4170708;28;20052;-46
2022/10/27 07:33:33;;;;;;;2.60;0.25;;;;;;;;;;4173743;28;20110;-41
2022/10/27 07:35:34;;;;;;;1.60;0.40;;;;;;;;;;4180622;28;20444;-43
2022/10/27 07:37:43;;;;;;;0.30;0.30;;;;;;;;;;4181313;28;20476;-44
2022/10/27 07:39:45;;;;;;;1.02;0.47;;;;;;;;;;4189835;28;20048;-46
2022/10/27 07:41:46;;;;;;;1.08;0.45;;;;;;;;;;4183456;28;20106;-43
2022/10/27 07:43:48;;;;;;;0.93;0.40;;;;;;;;;;4161861;28;20103;-44
2022/10/27 07:45:49;;;;;;;0.38;0.20;;;;;;;;;;4187203;28;20082;-43
2022/10/27 07:47:53;;;;;;;2.22;0.40;;;;;;;;;;4177177;28;20256;-48
2022/10/27 07:49:54;;;;;;;0.30;0.30;;;;;;;;;;4189118;28;20078;-51
2022/10/27 07:51:55;;;;;;;1.02;0.40;;;;;;;;;;4179423;28;20049;-44
2022/10/27 07:53:56;;;;;;;0.63;0.30;;;;;;;;;;4167460;28;20577;-45
2022/10/27 07:55:58;;;;;;;1.80;0.40;;;;;;;;;;4178214;28;20507;-43
2022/10/27 07:58:01;;;;;;;0.55;0.40;;;;;;;;;;4180118;28;20056;-41
2022/10/27 08:00:07;;;;;;;0.77;0.40;;;;;;;;;;4177139;28;20052;-41
2022/10/27 08:02:13;;;;;;;0.43;0.40;;;;;;;;;;4171856;28;20055;-47
2022/10/27 08:04:15;;;;;;;1.05;0.38;;;;;;;;;;4181543;28;20070;-42
2022/10/27 08:06:16;;;;;;;0.73;0.40;;;;;;;;;;4181834;28;20488;-49
2022/10/27 08:08:18;;;;;;;0.50;0.30;;;;;;;;;;4178646;28;20122;-46
2022/10/27 08:10:19;;;;;;;1.95;0.35;;;;;;;;;;4178357;28;20716;-44
2022/10/27 08:12:21;;;;;;;0.40;0.30;;;;;;;;;;4180907;28;20052;-46
2022/10/27 08:14:22;;;;;;;0.75;0.40;;;;;;;;;;4183291;28;20365;-45
2022/10/27 08:16:24;;;;;;;3.35;0.60;;;;;;;;;;4177931;28;20056;-47
2022/10/27 08:18:25;;;;;;;0.45;0.28;;;;;;;;;;4182364;28;20087;-46
2022/10/27 08:20:30;;;;;;;0.73;0.60;;;;;;;;;;4173331;28;20057;-41
2022/10/27 08:22:31;;;;;;;0.40;0.35;;;;;;;;;;4177714;28;20060;-42
2022/10/27 08:24:33;;;;;;;0.73;0.40;;;;;;;;;;4176889;28;20061;-45
2022/10/27 08:26:34;;;;;;;1.88;0.80;;;;;;;;;;4183689;28;21058;-41
2022/10/27 08:28:35;;;;;;;2.80;0.60;;;;;;;;;;4183303;28;20109;-46
2022/10/27 08:30:37;;;;;;;0.70;0.40;;;;;;;;;;4175586;28;20059;-44
2022/10/27 08:32:38;;;;;;;1.73;0.52;;;;;;;;;;4167223;28;20491;-46
2022/10/27 08:34:40;;;;;;;0.50;0.50;;;;;;;;;;4170629;28;20101;-49
2022/10/27 08:36:41;;;;;;;0.65;0.65;;;;;;;;;;4171904;28;20530;-42
2022/10/27 08:38:43;;;;;;;1.27;0.40;;;;;;;;;;4182780;28;20048;-44
2022/10/27 08:40:57;;;;;;;1.13;0.57;;;;;;;;;;4180862;28;20366;-48
2022/10/27 08:43:13;;;;;;;0.90;0.57;;;;;;;;;;4178529;28;20458;-45
2022/10/27 08:45:23;;;;;;;0.57;0.40;;;;;;;;;;4160785;28;20056;-49
2022/10/27 08:47:27;;;;;;;;;;;;;;;;;;4179304;28;20056;-46
2022/10/27 08:49:46;;;;;;;1.00;0.50;;;;;;;;;;4177361;28;19955;-47
2022/10/27 08:51:48;;;;;;;1.67;0.50;;;;;;;;;;4175640;28;20057;-43
2022/10/27 08:53:52;;;;;;;1.50;0.60;;;;;;;;;;4169732;28;20056;-45
2022/10/27 08:55:58;;;;;;;2.67;0.73;;;;;;;;;;4170535;28;20146;-41
2022/10/27 08:58:14;;;;;;;1.67;0.95;;;;;;;;;;4185453;28;20048;-43
2022/10/27 09:00:16;;;;;;;2.15;0.70;;;;;;;;;;4172808;28;20056;-40
2022/10/27 09:02:30;;;;;;;1.00;0.63;;;;;;;;;;4168693;28;20499;-44
2022/10/27 09:04:57;;;;;;;0.50;0.50;;;;;;;;;;4171072;28;20106;-45
2022/10/27 09:07:01;;;;;;;0.73;0.60;;;;;;;;;;4169114;28;20056;-42
2022/10/27 09:09:14;;;;;;;1.45;0.50;;;;;;;;;;4173746;28;20484;-43
2022/10/27 09:11:37;;;;;;;0.85;0.55;;;;;;;;;;4179406;28;20643;-42
2022/10/27 09:14:03;;;;;;;0.98;0.77;;;;;;;;;;4182774;28;20552;-43
2022/10/27 09:16:08;;;;;;;0.50;0.50;;;;;;;;;;4172803;28;20063;-43
2022/10/27 09:18:37;;;;;;;0.63;0.40;;;;;;;;;;4175818;28;20094;-44
2022/10/27 09:20:53;;;;;;;0.50;0.47;;;;;;;;;;4170394;28;20059;-41
2022/10/27 09:22:56;;;;;;;0.70;0.60;;;;;;;;;;4172238;28;20048;-42
2022/10/27 09:25:03;;;;;;;2.58;0.40;;;;;;;;;;4163744;28;20052;-40
2022/10/27 09:27:06;;;;;;;3.60;0.70;;;;;;;;;;4174336;28;20064;-46
2022/10/27 09:29:17;;;;;;;2.00;0.43;;;;;;;;;;4181703;28;20060;-44
2022/10/27 09:31:33;;;;;;;0.70;0.50;;;;;;;;;;4168904;28;20618;-41
2022/10/27 09:33:35;;;;;;;0.98;0.50;;;;;;;;;;4164607;28;20158;-44
2022/10/27 09:35:36;;;;;;;2.78;0.50;;;;;;;;;;4162153;28;20079;-44
2022/10/27 09:37:41;;;;;;;0.60;0.60;;;;;;;;;;4153458;28;20060;-45
2022/10/27 09:39:48;;;;;;;0.77;0.50;;;;;;;;;;4191869;28;20176;-45
2022/10/27 09:41:51;;;;;;;0.50;0.50;;;;;;;;;;4178029;28;20128;-44
2022/10/27 09:43:54;;;;;;;1.10;0.50;;;;;;;;;;4179709;28;20592;-38
2022/10/27 09:46:13;;;;;;;0.43;0.30;;;;;;;;;;4180399;28;20056;-42
2022/10/27 09:48:19;;;;;;;1.42;0.50;;;;;;;;;;4181807;28;20086;-42
2022/10/27 09:50:27;;;;;;;1.13;0.50;;;;;;;;;;4170877;28;20070;-43
2022/10/27 09:52:32;;;;;;;1.13;0.50;;;;;;;;;;4186110;28;21026;-48
2022/10/27 09:54:38;;;;;;;0.90;0.50;;;;;;;;;;4171282;28;21120;-45
2022/10/27 09:56:39;;;;;;;0.75;0.65;;;;;;;;;;4166343;28;21061;-44
2022/10/27 09:58:48;;;;;;;0.88;0.50;;;;;;;;;;4172182;28;20097;-47
2022/10/27 10:00:56;;;;;;;1.08;0.40;;;;;;;;;;4170495;28;20079;-47
2022/10/27 10:03:08;;;;;;;0.65;0.63;;;;;;;;;;4163921;28;20048;-47
2022/10/27 10:05:21;;;;;;;0.90;0.50;;;;;;;;;;4178021;28;20385;-46
2022/10/27 10:07:42;;;;;;;0.95;0.60;;;;;;;;;;4173718;28;20182;-40
2022/10/27 10:09:43;;;;;;;1.50;0.60;;;;;;;;;;4179364;28;20388;-45
2022/10/27 10:11:44;;;;;;;1.85;0.70;;;;;;;;;;4154929;28;20045;-44
2022/10/27 10:13:59;;;;;;;0.95;0.60;;;;;;;;;;4171591;28;20063;-44
2022/10/27 10:16:05;;;;;;;0.45;0.40;;;;;;;;;;4165068;28;20060;-42
2022/10/27 10:18:20;;;;;;;0.60;0.50;;;;;;;;;;4169431;28;20044;-42
2022/10/27 10:20:33;;;;;;;2.38;0.52;;;;;;;;;;4174383;28;20060;-43
2022/10/27 10:22:35;;;;;;;0.80;0.50;;;;;;;;;;4185938;28;20527;-44
2022/10/27 10:24:37;;;;;;;0.65;0.50;;;;;;;;;;4179192;28;20427;-45
2022/10/27 10:26:44;;;;;;;1.17;0.57;;;;;;;;;;4170109;28;20076;-43
2022/10/27 10:28:49;;;;;;;0.68;0.50;;;;;;;;;;4183762;28;20378;-48
2022/10/27 10:30:51;;;;;;;0.68;0.50;;;;;;;;;;4186474;28;20525;-44
2022/10/27 10:32:54;;;;;;;2.15;0.68;;;;;;;;;;4185437;28;20078;-45
2022/10/27 10:34:56;;;;;;;0.63;0.60;;;;;;;;;;4174438;28;20111;-43
2022/10/27 10:36:57;;;;;;;1.48;0.82;;;;;;;;;;4174029;28;20779;-46
2022/10/27 10:38:59;;;;;;;5.28;0.85;;;;;;;;;;4173945;28;20060;-44
2022/10/27 10:41:19;;;;;;;0.63;0.50;;;;;;;;;;4180006;28;20102;-46
2022/10/27 10:43:20;;;;;;;;;;;;;;;;;;4168595;28;20057;-43
2022/10/27 10:45:26;;;;;;;2.17;0.63;;;;;;;;;;4167291;28;19929;-45
2022/10/27 10:47:28;;;;;;;3.95;0.55;;;;;;;;;;4159294;28;20563;-46
2022/10/27 10:49:33;;;;;;;1.58;0.70;;;;;;;;;;4159186;28;20057;-41
2022/10/27 10:51:35;;;;;;;0.57;0.38;;;;;;;;;;4181118;28;20121;-46
2022/10/27 10:53:43;;;;;;;0.93;0.68;;;;;;;;;;4162091;28;20056;-44
2022/10/27 10:55:44;;;;;;;1.33;0.63;;;;;;;;;;4153336;28;21047;-45
2022/10/27 10:57:47;;;;;;;0.85;0.57;;;;;;;;;;4186844;28;20110;-47
2022/10/27 10:59:51;;;;;;;2.75;0.90;;;;;;;;;;4179169;28;20122;-45
2022/10/27 11:01:55;;;;;;;0.80;0.68;;;;;;;;;;4174779;28;20190;-46
2022/10/27 11:03:56;;;;;;;1.48;0.60;;;;;;;;;;4182735;28;21028;-45
2022/10/27 11:06:00;;;;;;;1.50;0.50;;;;;;;;;;4182884;28;20720;-46
2022/10/27 11:08:03;;;;;;;1.02;0.57;;;;;;;;;;4180855;28;20494;-40
2022/10/27 11:10:17;;;;;;;5.18;0.70;;;;;;;;;;4171503;28;20573;-46
2022/10/27 11:12:28;;;;;;;3.40;0.60;;;;;;;;;;4175230;28;20132;-44
2022/10/27 11:14:29;;;;;;;1.10;0.75;;;;;;;;;;4175086;28;20109;-45
2022/10/27 11:16:31;;;;;;;1.83;0.50;;;;;;;;;;4174535;28;20057;-45
2022/10/27 11:18:58;;;;;;;1.73;0.57;;;;;;;;;;4151339;28;20060;-44
2022/10/27 11:21:06;;;;;;;1.58;0.70;;;;;;;;;;4169906;28;20204;-45
2022/10/27 11:23:17;;;;;;;0.80;0.60;;;;;;;;;;4179973;28;20095;-45
2022/10/27 11:25:37;;;;;;;1.63;0.65;;;;;;;;;;4182655;28;20746;-43
2022/10/27 11:28:00;;;;;;;0.90;0.60;;;;;;;;;;4169055;28;20078;-41
2022/10/27 11:30:22;;;;;;;0.93;0.70;;;;;;;;;;4179109;28;20613;-41
2022/10/27 11:32:26;;;;;;;1.35;0.80;;;;;;;;;;4180390;28;20074;-40
2022/10/27 11:34:42;;;;;;;1.48;0.60;;;;;;;;;;4181137;28;20052;-42
2022/10/27 11:36:56;;;;;;;1.17;0.68;;;;;;;;;;4173098;28;20511;-41
2022/10/27 11:39:04;;;;;;;1.05;0.45;;;;;;;;;;4176889;28;20459;-42
2022/10/27 11:41:14;;;;;;;0.85;0.70;;;;;;;;;;4173006;28;20052;-42
2022/10/27 11:43:15;;;;;;;;;;;;;;;;;;4174200;28;20057;-42
2022/10/27 11:45:19;;;;;;;0.77;0.68;;;;;;;;;;4182192;28;20383;-43
2022/10/27 11:47:32;;;;;;;1.88;0.68;;;;;;;;;;4154146;28;20565;-41
2022/10/27 11:49:49;;;;;;;1.73;0.57;;;;;;;;;;4179908;28;20130;-42
2022/10/27 11:51:56;;;;;;;1.23;0.70;;;;;;;;;;4171955;28;20053;-43
2022/10/27 11:53:58;;;;;;;0.70;0.50;;;;;;;;;;4174401;28;20056;-40
2022/10/27 11:56:06;;;;;;;2.97;0.70;;;;;;;;;;4179394;28;20107;-43
2022/10/27 11:58:19;;;;;;;1.63;0.77;;;;;;;;;;4178686;28;20052;-43
2022/10/27 12:00:22;;;;;;;1.52;0.70;;;;;;;;;;4166872;28;21479;-41
2022/10/27 12:02:49;;;;;;;1.63;0.65;;;;;;;;;;4164635;28;20063;-41
2022/10/27 12:05:10;;;;;;;1.30;0.65;;;;;;;;;;4174711;28;20060;-41
2022/10/27 12:07:37;;;;;;;2.00;0.50;;;;;;;;;;4169684;28;20122;-42
2022/10/27 12:10:07;;;;;;;1.25;0.60;;;;;;;;;;4161221;28;20048;-43
2022/10/27 12:12:30;;;;;;;1.27;0.52;;;;;;;;;;4155281;28;20099;-42
2022/10/27 12:14:47;;;;;;;1.83;0.80;;;;;;;;;;4181460;28;20056;-43
2022/10/27 12:17:04;;;;;;;2.47;0.60;;;;;;;;;;4161656;28;20445;-40
2022/10/27 12:19:13;;;;;;;1.50;0.80;;;;;;;;;;4172481;28;20090;-41
2022/10/27 12:21:45;;;;;;;1.50;0.50;;;;;;;;;;4184017;28;20420;-42
2022/10/27 12:24:11;;;;;;;0.85;0.73;;;;;;;;;;4167064;28;20099;-41
2022/10/27 12:26:30;;;;;;;3.25;0.80;;;;;;;;;;4168643;28;20052;-41
2022/10/27 12:28:33;;;;;;;1.33;0.93;;;;;;;;;;4178070;28;20489;-42
2022/10/27 12:30:36;;;;;;;0.60;0.50;;;;;;;;;;4172859;28;20087;-41